Terminal Aerodrome Forecast
Issued by NWS

Current Version | Previous Version | Text Only | Print | Product List | Glossary On
Versions: 1 2 3 4 5 6 7 8 9 10 11 12
000
FTUS45 KPIH 262300
TAFSUN
TAF
KSUN 262322Z 2700/2724 15006KT P6SM BKN160
     FM270300 31006KT P6SM SCT120 BKN200
     FM271800 31006KT P6SM BKN120
      AMD LTD TO CLD VIS AND WIND 2706/2714=

USA.gov is the U.S. government's official web portal to all federal, state and local government web resources and services.